• Join FlightAware (Why Join?)
  • Login
  • US Flag 
10:03PM EDT


 

Airport Tracker/Info


-or-


 

Live Flight TrackerFlight Track Log ✈ SWA174 ✈ 10-May-2013 ✈ KMDW - KDSM

Flight Track Log - Related Links

Times and Time Zones

All times are in EDT time to prevent confusion due to time zone crossing. See the SWA174 flight status page for this flight to view local times or setup timezone preferences in your user account.

Time Position Orientation Groundspeed Altitude Reporting Facility
EDT Latitude Longitude Course Direction KTS MPH feet Rate Location/Type
11:42PM 41.7833 -87.8500 251° West 238 274 2,900  Level Chicago TRACON
11:43PM 41.7528 -87.9139 237° Southwest 228 262 3,000  Climbing Chicago Center
11:44PM 41.7439 -87.9917 261° West 219 252 2,900  Descending Chicago Center
11:45PM 41.7397 -88.0819 266° West 210 242 3,000 1,140 Climbing Chicago Center
11:46PM 41.7742 -88.1500 304° West 220 253 5,300 3,060 Climbing Chicago Center
11:47PM 41.8078 -88.2347 298° West 274 315 9,300 3,360 Climbing Chicago Center
11:48PM 41.7994 -88.3406 264° West 288 331 12,100 2,820 Climbing Chicago Center
11:49PM 41.7933 -88.4656 266° West 329 379 15,000 3,240 Climbing Chicago Center
11:50PM 41.7753 -88.5956 259° West 355 409 18,800 3,240 Climbing Chicago Center
11:51PM 41.7519 -88.7222 256° West 355 409 21,600 2,520 Climbing Chicago Center
11:52PM 41.7275 -88.8614 257° West 379 436 24,000 2,280 Climbing Chicago Center
11:53PM 41.7033 -89.0042 257° West 395 455 26,300 2,400 Climbing Chicago Center
11:54PM 41.6950 -89.1550 266° West 411 473 28,900 2,700 Climbing Chicago Center
11:55PM 41.6936 -89.3303 269° West 397 457 31,900 1,500 Climbing Chicago Center
11:56PM 41.6903 -89.4800 268° West 403 464 32,000  Climbing Chicago Center
11:57PM 41.6878 -89.6175 269° West 418 481 32,000  Level Chicago Center
11:58PM 41.6847 -89.7731 269° West 420 483 32,000  Level Chicago Center
11:59PM 41.6817 -89.9278 269° West 418 481 32,000  Level Chicago Center
12:00AM 41.6783 -90.0814 268° West 417 480 32,000  Level Chicago Center
12:01AM 41.6742 -90.2650 268° West 415 478 32,000  Level Chicago Center
12:02AM 41.6678 -90.4275 267° West 433 498 32,000  Level Chicago Center
12:03AM 41.6639 -90.5836 268° West 424 488 32,000  Level Chicago Center
12:04AM 41.6586 -90.7469 268° West 426 490 32,000  Level Chicago Center
12:05AM 41.6539 -90.9056 268° West 428 493 32,000  Level Chicago Center
12:06AM 41.6489 -91.0639 268° West 430 495 32,000  Level Chicago Center
12:07AM 41.6436 -91.2225 268° West 430 495 32,000  Level Chicago Center
12:08AM 41.6375 -91.3797 267° West 427 491 32,000  Level Chicago Center
12:09AM 41.6319 -91.5375 267° West 427 491 32,000  Level Chicago Center
12:10AM 41.6264 -91.6936 267° West 425 489 32,000 -180 Level Chicago Center
12:11AM 41.6203 -91.8500 267° West 424 488 31,700 -1,680 Descending Chicago Center
12:12AM 41.6144 -92.0042 267° West 420 483 28,700 -2,820 Descending Chicago Center
12:13AM 41.6078 -92.1539 267° West 414 476 26,100 -2,520 Descending Chicago Center
12:14AM 41.6019 -92.2972 267° West 401 461 23,700 -2,400 Descending Chicago Center
12:15AM 41.5950 -92.4344 266° West 384 442 21,300 -2,340 Descending Chicago Center
12:16AM 41.5886 -92.5658 266° West 370 426 19,000 -2,460 Descending Chicago Center
12:17AM 41.5825 -92.7236 267° West 355 409 16,400 -2,460 Descending Chicago Center
12:18AM 41.5819 -92.8400 270° West 353 406 14,100 -2,340 Descending Chicago Center
12:19AM 41.5853 -92.9650 272° West 344 396 11,800 -1,920 Descending Chicago Center
12:20AM 41.5875 -93.0872 271° West 336 387 10,300 -1,200 Descending Chicago Center
12:21AM 41.5889 -93.1933 271° West 303 349 9,400 -1,200 Descending Chicago Center
12:21AM 41.5964 -93.2217 290° West 279 321 8,800 -1,680 Descending Minneapolis Center
12:22AM 41.5922 -93.3164 267° West 272 313 7,600 -1,320 Descending Minneapolis Center
12:23AM 41.5942 -93.4144 272° West 265 305 6,400 -1,440 Descending Minneapolis Center
12:24AM 41.5958 -93.5144 271° West 254 292 4,700 -1,440 Descending Minneapolis Center
12:25AM 41.6028 -93.5272 306° West 255 293 4,600 -120 Descending Minneapolis Center
12:25AM 41.6050 -93.5972 272° West 221 254 4,600 -360 Level Minneapolis Center
12:26AM 41.6200 -93.6119 324° Northwest 194 223 4,200 -1,440 Descending Minneapolis Center
12:26AM 41.6225 -93.6567 274° West 177 204 3,200 -1,200 Descending Minneapolis Center
12:27AM 41.6231 -93.6703 273° West 170 196 3,000 -900 Descending Minneapolis Center
12:27AM 41.5981 -93.7025 224° Southwest 154 177 2,300 -1,140 Descending Minneapolis Center
12:28AM 41.5911 -93.7008 170° South 142 163 1,900 -840 Descending Minneapolis Center
12:28AM 41.5628 -93.7003 179° South 137 158 1,500 -720 Descending Minneapolis Center
12:29AM 41.5586 -93.6761 103° East 141 162 1,200 -600 Descending Minneapolis Center
12:29AM 41.5353 -93.6592 151° Southeast 142 163 900 -480 Descending Minneapolis Center
12:31AM 41.5333 -93.6500 143° Southeast  Level FlightAware Approximate